Isle of Skye, United Kingdom
Current Conditions -  °F | °C
As of 6:20 AM on Monday 24 Nov 2014 (Local Time) from EGPU Reporting Station
Overcast Overcast  
Wind Chill: 50°   Ceiling: 3000
Heat Index: 50°   Visibility: 6mi
Dew Point: 45°   Wind: 14mph
Humidity: 82%   Direction: 230°SW
Pressure: 30.09"   Gusts: NA
Location:  57.11°N, 5.86°W
Report Text: EGPU 240620Z AUTO 23012KT 300V360 9999 OVC030/// 10/07 Q1019
Loading
Personal Weather Stations






























Interactive Weather Map New forecast layout! Learn more

10-Day Weather Forecast

Advertisements
Track Severe Weather on mobile